createdAt,value
2018-12-17T00:01:08.303Z,9.17
2018-12-17T00:03:37.644Z,9.20
2018-12-17T00:06:06.378Z,6.70
2018-12-17T00:08:35.614Z,9.43
2018-12-17T00:11:04.733Z,8.40
2018-12-17T00:13:33.669Z,9.80
2018-12-17T00:16:02.939Z,10.17
2018-12-17T00:18:32.205Z,9.30
2018-12-17T00:21:01.337Z,9.30
2018-12-17T00:23:30.383Z,9.77
2018-12-17T00:25:59.427Z,10.23
2018-12-17T00:28:28.187Z,9.03
2018-12-17T00:30:57.308Z,8.97
2018-12-17T00:33:26.402Z,8.67
2018-12-17T00:35:55.391Z,8.07
2018-12-17T00:38:24.620Z,8.00
2018-12-17T00:40:53.708Z,8.47
2018-12-17T00:43:22.996Z,9.23
2018-12-17T00:45:51.775Z,8.10
2018-12-17T00:48:21.013Z,8.70
2018-12-17T00:50:50.075Z,8.17
2018-12-17T00:53:18.769Z,8.57
2018-12-17T00:55:47.540Z,8.33
2018-12-17T00:58:16.550Z,8.53
2018-12-17T01:00:45.568Z,8.00
2018-12-17T01:03:14.373Z,8.87
2018-12-17T01:05:43.212Z,8.97
2018-12-17T01:08:12.473Z,7.70
2018-12-17T01:10:41.288Z,8.63
2018-12-17T01:13:10.299Z,8.70
2018-12-17T01:15:39.573Z,7.70
2018-12-17T01:18:08.724Z,8.47
2018-12-17T01:20:37.811Z,7.83
2018-12-17T01:23:06.680Z,8.23
2018-12-17T01:25:35.525Z,7.87
2018-12-17T01:28:04.762Z,8.10
2018-12-17T01:30:33.763Z,7.97
2018-12-17T01:33:02.573Z,8.50
2018-12-17T01:35:31.562Z,8.20
2018-12-17T01:38:00.431Z,9.33
2018-12-17T01:40:29.480Z,8.03
2018-12-17T01:42:58.409Z,9.37
2018-12-17T01:45:27.142Z,9.03
2018-12-17T01:47:55.831Z,8.20
2018-12-17T01:50:24.899Z,7.33
2018-12-17T01:52:53.938Z,8.10
2018-12-17T01:55:22.947Z,8.90
2018-12-17T01:57:51.978Z,9.67
2018-12-17T02:00:20.800Z,8.20
2018-12-17T02:02:49.856Z,8.30
2018-12-17T02:05:18.795Z,7.47
2018-12-17T02:07:47.885Z,7.33
2018-12-17T02:10:16.835Z,9.93
2018-12-17T02:12:45.733Z,9.77
2018-12-17T02:15:14.513Z,7.73
2018-12-17T02:17:43.398Z,7.47
2018-12-17T02:20:12.092Z,8.70
2018-12-17T02:22:41.199Z,8.43
2018-12-17T02:25:10.919Z,8.23
2018-12-17T02:27:39.759Z,6.37
2018-12-17T02:30:08.592Z,8.53
2018-12-17T02:32:37.286Z,7.80
2018-12-17T02:35:07.098Z,8.33
2018-12-17T02:37:35.766Z,8.17
2018-12-17T02:40:05.214Z,8.27
2018-12-17T02:42:34.112Z,8.03
2018-12-17T02:45:02.870Z,8.50
2018-12-17T02:47:31.581Z,8.23
2018-12-17T02:50:00.321Z,7.43
2018-12-17T02:52:29.062Z,10.50
2018-12-17T02:54:58.241Z,7.70
2018-12-17T02:57:27.417Z,12.80
2018-12-17T02:59:56.145Z,8.97
2018-12-17T03:02:25.226Z,13.30
2018-12-17T03:04:54.298Z,8.37
2018-12-17T03:07:23.464Z,7.70
2018-12-17T03:09:52.199Z,8.97
2018-12-17T03:12:21.127Z,13.70
2018-12-17T03:14:50.486Z,7.37
2018-12-17T03:17:19.452Z,8.93
2018-12-17T03:19:48.373Z,9.40
2018-12-17T03:22:17.552Z,8.27
2018-12-17T03:24:47.179Z,8.87
2018-12-17T03:27:16.156Z,8.27
2018-12-17T03:29:45.504Z,8.80
2018-12-17T03:32:14.665Z,8.03
2018-12-17T03:34:43.474Z,8.10
2018-12-17T03:37:12.232Z,8.90
2018-12-17T03:39:41.087Z,9.20
2018-12-17T03:42:10.379Z,9.40
2018-12-17T03:44:39.090Z,8.77
2018-12-17T03:47:08.579Z,10.03
2018-12-17T03:49:37.704Z,7.83
2018-12-17T03:52:06.362Z,8.17
2018-12-17T03:54:35.500Z,9.10
2018-12-17T03:57:04.584Z,8.83
2018-12-17T03:59:33.385Z,8.80
2018-12-17T04:02:02.405Z,7.77
2018-12-17T04:04:31.459Z,8.67
2018-12-17T04:07:00.641Z,9.40
2018-12-17T04:09:29.309Z,8.27
2018-12-17T04:11:58.519Z,7.70
2018-12-17T04:14:27.276Z,7.70
2018-12-17T04:16:56.253Z,7.50
2018-12-17T04:19:25.506Z,8.80
2018-12-17T04:21:54.701Z,9.27
2018-12-17T04:24:23.468Z,7.57
2018-12-17T04:26:52.502Z,7.70
2018-12-17T04:29:21.471Z,8.90
2018-12-17T04:31:50.244Z,8.00
2018-12-17T04:34:19.144Z,8.37
2018-12-17T04:36:48.030Z,8.60
2018-12-17T04:39:16.869Z,9.43
2018-12-17T04:41:45.969Z,8.40
2018-12-17T04:44:14.797Z,8.63
2018-12-17T04:46:43.557Z,7.90
2018-12-17T04:49:12.388Z,7.10
2018-12-17T04:51:41.155Z,7.87
2018-12-17T04:54:10.117Z,9.10
2018-12-17T04:56:38.814Z,8.63
2018-12-17T04:59:14.348Z,8.67
2018-12-17T05:01:38.663Z,8.23
2018-12-17T05:04:07.630Z,8.13
2018-12-17T05:06:36.715Z,7.43
2018-12-17T05:09:08.232Z,8.47
2018-12-17T05:11:36.953Z,7.70
2018-12-17T05:14:05.946Z,8.67
2018-12-17T05:16:34.992Z,7.67
2018-12-17T05:19:03.941Z,7.20
2018-12-17T05:21:32.658Z,7.10
2018-12-17T05:24:01.357Z,8.33
2018-12-17T05:26:30.093Z,8.73
2018-12-17T05:28:58.974Z,9.40
2018-12-17T05:31:27.715Z,8.10
2018-12-17T05:33:56.711Z,9.47
2018-12-17T05:36:25.434Z,9.70
2018-12-17T05:38:54.561Z,7.70
2018-12-17T05:41:23.284Z,8.70
2018-12-17T05:43:52.247Z,8.93
2018-12-17T05:46:21.259Z,10.23
2018-12-17T05:48:50.413Z,9.17
2018-12-17T05:51:19.185Z,9.30
2018-12-17T05:53:47.935Z,9.77
2018-12-17T05:56:17.108Z,10.00
2018-12-17T05:58:46.132Z,10.00
2018-12-17T06:01:14.932Z,9.33
2018-12-17T06:03:44.266Z,8.73
2018-12-17T06:06:13.246Z,8.77
2018-12-17T06:08:42.479Z,9.70
2018-12-17T06:11:11.488Z,9.17
2018-12-17T06:13:40.576Z,9.53
2018-12-17T06:16:09.556Z,10.27
2018-12-17T06:18:39.208Z,9.73
2018-12-17T06:21:08.126Z,11.03
2018-12-17T06:23:37.156Z,9.80
2018-12-17T06:26:05.989Z,11.27
2018-12-17T06:28:35.003Z,11.77
2018-12-17T06:31:04.130Z,10.80
2018-12-17T06:33:32.890Z,10.27
2018-12-17T06:36:01.692Z,12.13
2018-12-17T06:38:30.812Z,11.43
2018-12-17T06:40:59.497Z,11.53
2018-12-17T06:43:28.698Z,11.63
2018-12-17T06:45:57.691Z,10.17
2018-12-17T06:48:26.787Z,12.53
2018-12-17T06:50:56.265Z,12.70
2018-12-17T06:53:25.189Z,12.77
2018-12-17T06:55:54.166Z,14.33
2018-12-17T06:58:23.481Z,12.73
2018-12-17T07:00:52.181Z,11.80
2018-12-17T07:03:21.246Z,13.83
2018-12-17T07:05:50.269Z,12.10
2018-12-17T07:08:19.877Z,13.07
2018-12-17T07:10:49.223Z,14.27
2018-12-17T07:13:18.064Z,13.07
2018-12-17T07:15:46.847Z,12.73
2018-12-17T07:18:15.940Z,12.67
2018-12-17T07:20:44.771Z,11.17
2018-12-17T07:23:13.544Z,15.40
2018-12-17T07:25:42.610Z,16.70
2018-12-17T07:28:11.706Z,12.43
2018-12-17T07:30:40.725Z,13.13
2018-12-17T07:33:09.609Z,9.30
2018-12-17T07:35:38.456Z,9.87
2018-12-17T07:38:07.578Z,11.60
2018-12-17T07:40:36.785Z,19.43
2018-12-17T07:43:06.074Z,11.07
2018-12-17T07:45:34.835Z,12.10
2018-12-17T07:48:04.266Z,11.33
2018-12-17T07:50:33.257Z,12.57
2018-12-17T07:53:02.026Z,12.43
2018-12-17T07:55:31.154Z,11.47
2018-12-17T07:58:00.186Z,10.97
2018-12-17T08:00:29.288Z,11.10
2018-12-17T08:02:58.039Z,13.30
2018-12-17T08:05:27.742Z,12.63
2018-12-17T08:07:56.840Z,14.47
2018-12-17T08:10:27.078Z,16.53
2018-12-17T08:12:57.009Z,11.40
2018-12-17T08:15:26.949Z,13.63
2018-12-17T08:18:33.767Z,11.97
2018-12-17T08:21:03.042Z,12.07
2018-12-17T08:23:32.252Z,12.50
2018-12-17T08:26:01.131Z,10.50
2018-12-17T08:28:30.312Z,11.07
2018-12-17T08:30:59.557Z,12.47
2018-12-17T08:33:28.565Z,12.83
2018-12-17T08:35:57.750Z,12.97
2018-12-17T08:38:26.912Z,11.30
2018-12-17T08:40:55.940Z,9.37
2018-12-17T08:43:24.982Z,9.00
2018-12-17T08:45:54.028Z,13.53
2018-12-17T08:48:22.763Z,11.00
2018-12-17T08:50:51.682Z,11.57
2018-12-17T08:53:20.970Z,10.80
2018-12-17T08:55:49.806Z,18.50
2018-12-17T08:58:19.292Z,15.63
2018-12-17T09:00:48.093Z,14.17
2018-12-17T09:03:17.418Z,12.33
2018-12-17T09:05:46.393Z,11.13
2018-12-17T09:08:21.721Z,11.53
2018-12-17T09:10:50.819Z,11.90
2018-12-17T09:13:23.603Z,11.23
2018-12-17T09:15:52.953Z,12.80
2018-12-17T09:18:27.191Z,9.30
2018-12-17T09:20:56.218Z,10.73
2018-12-17T09:23:26.152Z,12.67
2018-12-17T09:25:54.915Z,13.00
2018-12-17T09:28:24.214Z,11.20
2018-12-17T09:30:53.179Z,12.93
2018-12-17T09:33:22.196Z,12.27
2018-12-17T09:35:51.402Z,13.10
2018-12-17T09:38:20.210Z,12.43
2018-12-17T09:40:48.971Z,12.23
2018-12-17T09:43:17.897Z,11.37
2018-12-17T09:45:46.749Z,10.93
2018-12-17T09:48:16.061Z,11.63
2018-12-17T09:50:45.042Z,11.00
2018-12-17T09:53:14.139Z,11.60
2018-12-17T09:55:43.153Z,10.70
2018-12-17T09:58:11.944Z,10.30
2018-12-17T10:00:40.704Z,12.77
2018-12-17T10:03:09.537Z,13.20
2018-12-17T10:05:38.721Z,13.53
2018-12-17T10:08:07.640Z,13.77
2018-12-17T10:10:36.518Z,12.07
2018-12-17T10:13:05.707Z,14.00
2018-12-17T10:15:34.874Z,15.67
2018-12-17T10:18:03.571Z,15.00
2018-12-17T10:20:32.761Z,13.93
2018-12-17T10:23:01.480Z,13.93
2018-12-17T10:25:30.982Z,13.20
2018-12-17T10:28:00.063Z,13.07
2018-12-17T10:30:32.480Z,11.80
2018-12-17T10:33:00.308Z,13.07
2018-12-17T10:35:29.157Z,12.17
2018-12-17T10:37:57.970Z,12.90
2018-12-17T10:40:27.165Z,12.17
2018-12-17T10:42:56.374Z,13.10
2018-12-17T10:45:25.512Z,13.53
2018-12-17T10:47:54.259Z,14.07
2018-12-17T10:50:23.358Z,10.93
2018-12-17T10:52:52.343Z,11.10
2018-12-17T10:55:21.352Z,11.60
2018-12-17T10:57:50.357Z,10.47
2018-12-17T11:00:24.795Z,11.63
2018-12-17T11:02:55.907Z,11.60
2018-12-17T11:05:24.951Z,11.27
2018-12-17T11:07:53.807Z,10.70
2018-12-17T11:10:22.578Z,10.23
2018-12-17T11:12:51.905Z,11.07
2018-12-17T11:15:20.857Z,12.00
2018-12-17T11:17:49.771Z,11.50
2018-12-17T11:20:18.767Z,13.53
2018-12-17T11:22:47.857Z,12.27
2018-12-17T11:25:16.852Z,11.63
2018-12-17T11:27:46.023Z,11.40
2018-12-17T11:30:14.922Z,11.13
2018-12-17T11:32:44.949Z,10.77
2018-12-17T11:35:14.359Z,11.33
2018-12-17T11:37:43.459Z,19.77
2018-12-17T11:40:12.641Z,10.27
2018-12-17T11:42:41.645Z,10.73
2018-12-17T11:45:10.646Z,11.37
2018-12-17T11:47:39.733Z,11.03
2018-12-17T11:50:09.216Z,11.63
2018-12-17T11:52:38.240Z,13.63
2018-12-17T11:55:07.360Z,14.60
2018-12-17T11:58:03.980Z,13.33
2018-12-17T12:00:33.011Z,12.93
2018-12-17T12:03:01.967Z,11.47
2018-12-17T12:05:30.690Z,11.13
2018-12-17T12:07:59.632Z,11.40
2018-12-17T12:10:28.860Z,10.53
2018-12-17T12:12:57.595Z,9.63
2018-12-17T12:15:26.723Z,9.03
2018-12-17T12:17:55.644Z,9.10
2018-12-17T12:20:24.842Z,9.57
2018-12-17T12:22:54.096Z,10.20
2018-12-17T12:25:22.941Z,11.03
2018-12-17T12:27:52.005Z,8.80
2018-12-17T12:30:20.745Z,10.70
2018-12-17T12:32:49.782Z,12.17
2018-12-17T12:35:18.570Z,9.60
2018-12-17T12:37:47.501Z,10.03
2018-12-17T12:40:16.657Z,10.63
2018-12-17T12:42:51.644Z,11.57
2018-12-17T12:45:16.881Z,11.83
2018-12-17T12:47:45.652Z,13.10
2018-12-17T12:50:14.587Z,12.93
2018-12-17T12:52:43.308Z,11.67
2018-12-17T12:55:12.464Z,16.33
2018-12-17T12:57:41.161Z,15.00
2018-12-17T13:00:13.495Z,14.97
2018-12-17T13:02:42.891Z,14.93
2018-12-17T13:05:11.947Z,15.30
2018-12-17T13:07:41.223Z,12.77
2018-12-17T13:10:11.228Z,13.63
2018-12-17T13:12:40.608Z,13.63
2018-12-17T13:15:10.667Z,12.63
2018-12-17T13:17:39.830Z,12.00
2018-12-17T13:20:10.199Z,13.30
2018-12-17T13:22:39.281Z,12.40
2018-12-17T13:25:12.997Z,13.20
2018-12-17T13:27:41.889Z,14.03
2018-12-17T13:30:11.296Z,12.27
2018-12-17T13:32:40.039Z,14.40
2018-12-17T13:35:09.879Z,17.87
2018-12-17T13:37:39.067Z,15.23
2018-12-17T13:40:09.927Z,14.20
2018-12-17T13:42:39.117Z,14.20
2018-12-17T13:45:08.068Z,16.00
2018-12-17T13:47:37.111Z,14.67
2018-12-17T13:50:41.691Z,14.80
2018-12-17T13:53:15.950Z,13.63
2018-12-17T13:55:45.144Z,14.73
2018-12-17T13:58:14.356Z,14.00
2018-12-17T14:00:43.431Z,12.77
2018-12-17T14:03:12.562Z,12.17
2018-12-17T14:05:41.721Z,13.53
2018-12-17T14:08:10.491Z,15.10
2018-12-17T14:10:44.304Z,15.53
2018-12-17T14:13:13.229Z,16.17
2018-12-17T14:15:48.150Z,13.70
2018-12-17T14:18:22.395Z,14.83
2018-12-17T14:20:56.662Z,12.43
2018-12-17T14:23:25.446Z,12.40
2018-12-17T14:25:54.207Z,14.53
2018-12-17T14:28:23.997Z,14.47
2018-12-17T14:30:52.930Z,14.30
2018-12-17T14:33:21.884Z,14.53
2018-12-17T14:35:56.073Z,15.00
2018-12-17T14:38:25.173Z,12.60
2018-12-17T14:40:53.925Z,11.90
2018-12-17T14:43:22.942Z,15.40
2018-12-17T14:45:52.092Z,14.33
2018-12-17T14:48:21.130Z,12.60
2018-12-17T14:50:50.350Z,11.97
2018-12-17T14:53:19.462Z,13.63
2018-12-17T14:55:48.606Z,13.40
2018-12-17T14:58:17.631Z,21.77
2018-12-17T15:00:47.281Z,17.80
2018-12-17T15:03:16.285Z,15.17
2018-12-17T15:05:45.139Z,14.43
2018-12-17T15:08:14.140Z,13.97
2018-12-17T15:10:43.201Z,13.27
2018-12-17T15:13:12.457Z,15.03
2018-12-17T15:15:41.203Z,20.10
2018-12-17T15:18:10.192Z,24.77
2018-12-17T15:20:39.027Z,18.57
2018-12-17T15:23:07.807Z,18.67
2018-12-17T15:25:36.868Z,15.90
2018-12-17T15:28:05.560Z,14.97
2018-12-17T15:30:35.486Z,14.83
2018-12-17T15:33:04.462Z,15.30
2018-12-17T15:35:33.483Z,16.33
2018-12-17T15:38:02.456Z,14.47
2018-12-17T15:40:31.845Z,17.77
2018-12-17T15:43:00.558Z,18.73
2018-12-17T15:45:29.314Z,18.37
2018-12-17T15:47:58.321Z,19.50
2018-12-17T15:50:27.206Z,19.53
2018-12-17T15:52:56.110Z,19.67
2018-12-17T15:55:24.956Z,21.63
2018-12-17T15:57:53.898Z,20.53
2018-12-17T16:00:22.814Z,24.67
2018-12-17T16:02:51.576Z,22.47
2018-12-17T16:05:20.561Z,19.40
2018-12-17T16:07:49.644Z,19.50
2018-12-17T16:10:18.526Z,20.20
2018-12-17T16:12:47.375Z,19.33
2018-12-17T16:15:27.191Z,21.80
2018-12-17T16:17:55.898Z,24.13
2018-12-17T16:20:24.676Z,26.07
2018-12-17T16:22:53.747Z,19.77
2018-12-17T16:25:22.606Z,19.30
2018-12-17T16:27:51.426Z,19.90
2018-12-17T16:30:20.573Z,17.73
2018-12-17T16:32:49.857Z,20.50
2018-12-17T16:35:18.952Z,17.47
2018-12-17T16:37:47.830Z,23.37
2018-12-17T16:40:16.622Z,21.47
2018-12-17T16:42:45.624Z,17.30
2018-12-17T16:45:14.752Z,21.43
2018-12-17T16:47:43.884Z,18.83
2018-12-17T16:50:12.715Z,17.90
2018-12-17T16:52:41.486Z,25.17
2018-12-17T16:55:10.569Z,23.20
2018-12-17T16:57:39.508Z,23.23
2018-12-17T17:00:10.065Z,23.03
2018-12-17T17:02:39.017Z,21.83
2018-12-17T17:05:08.121Z,23.90
2018-12-17T17:07:37.827Z,24.23
2018-12-17T17:10:09.061Z,23.70
2018-12-17T17:12:38.271Z,21.93
2018-12-17T17:15:10.557Z,19.80
2018-12-17T17:17:39.362Z,18.77
2018-12-17T17:20:09.683Z,20.30
2018-12-17T17:22:38.611Z,20.13
2018-12-17T17:25:07.596Z,19.27
2018-12-17T17:27:36.403Z,21.20
2018-12-17T17:30:05.991Z,25.63
2018-12-17T17:32:34.923Z,23.70
2018-12-17T17:35:04.145Z,22.67
2018-12-17T17:37:32.904Z,24.00
2018-12-17T17:40:01.931Z,25.37
2018-12-17T17:42:31.430Z,29.50
2018-12-17T17:45:00.327Z,27.70
2018-12-17T17:47:29.121Z,28.40
2018-12-17T17:49:57.914Z,29.10
2018-12-17T17:52:27.122Z,30.30
2018-12-17T17:54:55.793Z,32.57
2018-12-17T17:57:24.773Z,32.13
2018-12-17T17:59:53.474Z,31.93
2018-12-17T18:02:22.491Z,31.43
2018-12-17T18:04:51.434Z,31.40
2018-12-17T18:07:20.483Z,29.93
2018-12-17T18:09:49.438Z,33.37
2018-12-17T18:12:18.227Z,39.67
2018-12-17T18:14:47.272Z,38.30
2018-12-17T18:17:15.937Z,35.80
2018-12-17T18:19:44.763Z,35.10
2018-12-17T18:22:13.598Z,31.67
2018-12-17T18:24:42.706Z,32.63
2018-12-17T18:27:11.659Z,32.27
2018-12-17T18:29:40.816Z,31.07
2018-12-17T18:32:09.660Z,32.27
2018-12-17T18:34:38.312Z,33.17
2018-12-17T18:37:07.358Z,36.43
2018-12-17T18:39:36.389Z,31.63
2018-12-17T18:42:05.308Z,35.10
2018-12-17T18:44:34.553Z,35.27
2018-12-17T18:47:03.695Z,31.57
2018-12-17T18:49:32.583Z,32.23
2018-12-17T18:52:01.607Z,36.10
2018-12-17T18:54:30.670Z,34.63
2018-12-17T18:56:59.465Z,35.13
2018-12-17T18:59:28.246Z,36.40
2018-12-17T19:01:57.163Z,34.63
2018-12-17T19:04:26.112Z,36.43
2018-12-17T19:06:54.985Z,37.90
2018-12-17T19:09:23.932Z,36.23
2018-12-17T19:11:53.020Z,36.20
2018-12-17T19:14:21.934Z,33.20
2018-12-17T19:16:50.835Z,33.20
2018-12-17T19:19:20.282Z,34.20
2018-12-17T19:21:49.108Z,33.70
2018-12-17T19:24:17.908Z,35.57
2018-12-17T19:26:46.957Z,34.83
2018-12-17T19:29:15.736Z,34.83
2018-12-17T19:31:44.598Z,35.20
2018-12-17T19:34:13.286Z,35.27
2018-12-17T19:36:42.357Z,37.20
2018-12-17T19:39:11.377Z,37.37
2018-12-17T19:41:40.101Z,35.17
2018-12-17T19:44:09.111Z,35.33
2018-12-17T19:46:37.909Z,35.00
2018-12-17T19:49:06.823Z,34.53
2018-12-17T19:51:35.728Z,37.27
2018-12-17T19:54:04.663Z,42.57
2018-12-17T19:56:33.651Z,36.90
2018-12-17T19:59:02.373Z,32.13
2018-12-17T20:01:31.150Z,29.00
2018-12-17T20:04:00.305Z,29.47
2018-12-17T20:06:29.053Z,30.83
2018-12-17T20:08:58.003Z,26.93
2018-12-17T20:11:26.914Z,29.53
2018-12-17T20:13:55.911Z,30.67
2018-12-17T20:16:24.829Z,32.00
2018-12-17T20:18:53.795Z,29.90
2018-12-17T20:21:22.930Z,27.77
2018-12-17T20:23:52.287Z,28.43
2018-12-17T20:26:20.975Z,27.10
2018-12-17T20:28:50.219Z,29.00
2018-12-17T20:31:19.129Z,29.13
2018-12-17T20:33:48.196Z,28.27
2018-12-17T20:36:17.033Z,28.70
2018-12-17T20:38:46.115Z,30.03
2018-12-17T20:41:15.109Z,27.47
2018-12-17T20:43:43.959Z,27.93
2018-12-17T20:46:12.963Z,26.93
2018-12-17T20:48:41.720Z,28.00
2018-12-17T20:51:11.306Z,27.43
2018-12-17T20:53:40.683Z,26.27
2018-12-17T20:56:09.586Z,26.83
2018-12-17T20:58:38.298Z,24.03
2018-12-17T21:01:07.305Z,23.27
2018-12-17T21:03:36.479Z,22.47
2018-12-17T21:06:05.175Z,21.77
2018-12-17T21:08:34.155Z,23.03
2018-12-17T21:11:03.144Z,23.23
2018-12-17T21:13:31.914Z,23.90
2018-12-17T21:16:00.847Z,22.63
2018-12-17T21:18:29.696Z,19.97
2018-12-17T21:20:58.413Z,23.43
2018-12-17T21:23:27.807Z,23.20
2018-12-17T21:25:56.684Z,21.43
2018-12-17T21:28:25.804Z,21.03
2018-12-17T21:30:54.591Z,22.10
2018-12-17T21:33:23.722Z,19.93
2018-12-17T21:35:52.879Z,21.60
2018-12-17T21:38:21.572Z,19.53
2018-12-17T21:40:50.264Z,17.77
2018-12-17T21:43:19.351Z,18.53
2018-12-17T21:45:48.339Z,20.67
2018-12-17T21:48:17.214Z,16.40
2018-12-17T21:50:46.257Z,17.67
2018-12-17T21:53:15.429Z,15.87
2018-12-17T21:55:44.509Z,16.77
2018-12-17T21:58:13.618Z,17.93
2018-12-17T22:00:42.322Z,16.67
2018-12-17T22:03:13.336Z,17.53
2018-12-17T22:05:42.547Z,17.07
2018-12-17T22:08:11.268Z,17.77
2018-12-17T22:10:40.420Z,17.87
2018-12-17T22:13:09.198Z,16.83
2018-12-17T22:15:37.927Z,17.03
2018-12-17T22:18:06.856Z,18.70
2018-12-17T22:20:35.894Z,18.10
2018-12-17T22:23:04.726Z,17.30
2018-12-17T22:25:33.781Z,15.97
2018-12-17T22:28:02.540Z,16.30
2018-12-17T22:30:31.657Z,17.87
2018-12-17T22:33:00.654Z,17.20
2018-12-17T22:35:29.419Z,16.83
2018-12-17T22:37:58.437Z,17.20
2018-12-17T22:40:27.799Z,17.30
2018-12-17T22:42:56.869Z,18.70
2018-12-17T22:45:25.643Z,16.77
2018-12-17T22:47:54.710Z,18.63
2018-12-17T22:50:23.843Z,20.37
2018-12-17T22:52:53.128Z,18.10
2018-12-17T22:55:22.096Z,19.37
2018-12-17T22:57:51.190Z,19.70
2018-12-17T23:00:20.936Z,22.73
2018-12-17T23:02:49.906Z,22.07
2018-12-17T23:05:18.902Z,19.50
2018-12-17T23:07:48.055Z,17.37
2018-12-17T23:10:27.762Z,19.33
2018-12-17T23:13:07.336Z,15.63
2018-12-17T23:15:47.227Z,18.03
2018-12-17T23:18:14.894Z,18.53
2018-12-17T23:20:44.395Z,17.50
2018-12-17T23:23:13.413Z,18.47
2018-12-17T23:25:42.183Z,20.03
2018-12-17T23:28:11.378Z,20.83
2018-12-17T23:30:40.503Z,19.87
2018-12-17T23:33:09.212Z,20.33
2018-12-17T23:35:37.936Z,21.73
2018-12-17T23:38:07.139Z,20.03
2018-12-17T23:40:35.822Z,21.03
2018-12-17T23:43:05.029Z,23.03
2018-12-17T23:45:33.950Z,23.17
2018-12-17T23:48:03.133Z,21.10
2018-12-17T23:50:31.847Z,21.17
2018-12-17T23:53:01.025Z,21.37
2018-12-17T23:55:33.137Z,20.80
2018-12-17T23:58:01.947Z,19.97
